Time;durP1;ratioP1;P1;durP2;ratioP2;P2;SDS_P1;SDS_P2;PMS_P1;PMS_P2;Temp;Humidity;BMP_temperature;BMP_pressure;BME280_temperature;BME280_humidity;BME280_pressure;Samples;Min_cycle;Max_cycle;Signal;HPM_P1;HPM_P2
2022/02/22 00:01:40;;;;;;;13.48;4.88;;;2.70;79.40;;;;;;4940024;28;20783;-80
2022/02/22 00:04:07;;;;;;;14.70;4.88;;;2.80;79.60;;;;;;4940518;29;20058;-80
2022/02/22 00:06:33;;;;;;;6.18;3.28;;;2.80;78.80;;;;;;4957166;28;20462;-81
2022/02/22 00:08:59;;;;;;;7.90;3.45;;;2.80;78.60;;;;;;4957519;29;20046;-81
2022/02/22 00:11:25;;;;;;;9.70;4.28;;;2.80;78.90;;;;;;4957130;28;20110;-80
2022/02/22 00:13:52;;;;;;;6.03;3.53;;;2.80;78.70;;;;;;4940274;29;20027;-80
2022/02/22 00:16:17;;;;;;;7.30;4.13;;;2.90;78.30;;;;;;4957293;28;20027;-74
2022/02/22 00:18:43;;;;;;;6.30;4.22;;;2.90;78.20;;;;;;4956977;28;20110;-75
2022/02/22 00:21:08;;;;;;;9.75;3.97;;;2.90;78.10;;;;;;4957322;28;20048;-74
2022/02/22 00:23:34;;;;;;;7.10;4.20;;;2.90;78.50;;;;;;4956870;28;20504;-80
2022/02/22 00:26:00;;;;;;;8.50;4.00;;;2.90;78.30;;;;;;4957266;28;20028;-80
2022/02/22 00:28:25;;;;;;;7.95;3.45;;;2.90;78.20;;;;;;4936390;29;20074;-75
2022/02/22 00:30:51;;;;;;;6.20;3.78;;;2.90;78.40;;;;;;4920963;28;20088;-80
2022/02/22 00:33:17;;;;;;;8.63;3.85;;;3.00;79.00;;;;;;4956289;28;20062;-74
2022/02/22 00:35:43;;;;;;;8.93;4.05;;;3.00;78.40;;;;;;4957100;29;20426;-80
2022/02/22 00:38:09;;;;;;;12.82;5.45;;;3.00;78.30;;;;;;4956521;28;20035;-75
2022/02/22 00:40:35;;;;;;;10.60;3.70;;;3.00;78.30;;;;;;4957021;28;20034;-80
2022/02/22 00:43:00;;;;;;;6.65;3.63;;;3.00;78.50;;;;;;4939449;29;20027;-80
2022/02/22 00:45:26;;;;;;;9.00;4.10;;;3.00;78.70;;;;;;4939659;29;20023;-80
2022/02/22 00:47:52;;;;;;;11.48;4.60;;;2.90;79.30;;;;;;4956377;28;20027;-80
2022/02/22 00:50:18;;;;;;;6.07;3.22;;;2.90;79.10;;;;;;4956819;29;20066;-75
2022/02/22 00:52:43;;;;;;;7.57;3.58;;;2.80;79.60;;;;;;4956332;28;20027;-74
2022/02/22 00:55:09;;;;;;;10.10;5.00;;;2.80;79.70;;;;;;4939462;29;20019;-74
2022/02/22 00:57:37;;;;;;;6.00;3.30;;;2.70;80.00;;;;;;4935923;29;20489;-80
2022/02/22 01:00:04;;;;;;;9.52;4.07;;;2.70;80.40;;;;;;4920481;29;20024;-80
2022/02/22 01:02:29;;;;;;;8.68;3.08;;;2.70;81.10;;;;;;4950936;28;20066;-80
2022/02/22 01:04:55;;;;;;;12.43;4.75;;;2.60;81.10;;;;;;4956495;28;20051;-81
2022/02/22 01:07:21;;;;;;;6.88;3.42;;;2.60;81.00;;;;;;4938866;29;20030;-74
2022/02/22 01:09:47;;;;;;;6.78;3.38;;;2.60;81.70;;;;;;4956390;29;20032;-74
2022/02/22 01:12:15;;;;;;;11.40;4.00;;;2.60;81.80;;;;;;4955972;28;20020;-74
2022/02/22 01:14:41;;;;;;;7.25;3.85;;;2.60;82.20;;;;;;4956334;29;20019;-74
2022/02/22 01:17:07;;;;;;;8.73;3.33;;;2.70;82.80;;;;;;4955808;28;20389;-80
2022/02/22 01:19:33;;;;;;;8.15;3.85;;;2.70;82.50;;;;;;4956040;28;20033;-80
2022/02/22 01:21:59;;;;;;;8.90;4.47;;;2.70;82.70;;;;;;4954615;28;20027;-74
2022/02/22 01:24:24;;;;;;;8.95;4.13;;;2.70;83.30;;;;;;4956137;29;20031;-75
2022/02/22 01:26:50;;;;;;;5.47;3.33;;;2.70;82.90;;;;;;4955614;28;20023;-80
2022/02/22 01:29:15;;;;;;;5.53;3.33;;;2.80;83.30;;;;;;4956090;28;20035;-79
2022/02/22 01:31:41;;;;;;;9.70;4.65;;;2.80;83.70;;;;;;4938497;29;20025;-80
2022/02/22 01:34:09;;;;;;;6.88;3.90;;;2.80;84.00;;;;;;4938924;29;20452;-80
2022/02/22 01:36:34;;;;;;;10.45;4.07;;;2.80;83.80;;;;;;4955446;28;20086;-74
2022/02/22 01:39:00;;;;;;;10.27;4.22;;;2.80;84.10;;;;;;4955956;29;20019;-80
2022/02/22 01:41:27;;;;;;;9.95;4.63;;;3.00;83.80;;;;;;4955779;28;20028;-80
2022/02/22 01:43:53;;;;;;;9.57;4.22;;;3.00;84.30;;;;;;4938427;29;20019;-80
2022/02/22 01:46:18;;;;;;;10.23;3.92;;;3.00;83.90;;;;;;4938524;29;20027;-73
2022/02/22 01:48:44;;;;;;;9.68;3.47;;;3.10;84.00;;;;;;4955325;28;20031;-80
2022/02/22 01:51:10;;;;;;;7.80;3.50;;;3.20;83.10;;;;;;4955676;28;20100;-74
2022/02/22 01:53:35;;;;;;;7.60;3.35;;;3.20;84.10;;;;;;4955220;28;20034;-81
2022/02/22 01:56:03;;;;;;;8.80;3.63;;;3.10;84.80;;;;;;4955628;28;20477;-80
2022/02/22 01:58:29;;;;;;;7.45;4.13;;;3.20;85.00;;;;;;4934777;29;20032;-80
2022/02/22 02:00:55;;;;;;;9.55;5.15;;;3.20;85.40;;;;;;4919139;29;20032;-80
2022/02/22 02:03:21;;;;;;;12.18;4.05;;;3.20;86.00;;;;;;4951862;28;20102;-80
2022/02/22 02:05:46;;;;;;;6.85;3.97;;;3.10;86.60;;;;;;4938211;28;20023;-80
2022/02/22 02:08:12;;;;;;;4.93;2.95;;;3.10;87.80;;;;;;4937801;29;20409;-80
2022/02/22 02:10:39;;;;;;;6.20;3.90;;;3.20;88.70;;;;;;4955258;28;20090;-80
2022/02/22 02:13:04;;;;;;;7.53;4.82;;;3.10;89.80;;;;;;4954972;28;20477;-81
2022/02/22 02:15:30;;;;;;;9.43;4.15;;;3.10;91.20;;;;;;4955375;28;20051;-75
2022/02/22 02:17:56;;;;;;;6.78;3.10;;;3.10;92.10;;;;;;4937720;29;20023;-81
2022/02/22 02:20:22;;;;;;;3.70;2.83;;;3.10;93.00;;;;;;4937937;29;20058;-80
2022/02/22 02:22:48;;;;;;;3.20;2.90;;;3.10;94.10;;;;;;4937710;29;20106;-80
2022/02/22 02:25:14;;;;;;;5.85;3.08;;;3.10;95.20;;;;;;4955326;29;20066;-80
2022/02/22 02:27:39;;;;;;;8.38;4.53;;;3.10;95.80;;;;;;4954909;28;20434;-74
2022/02/22 02:30:07;;;;;;;8.32;3.55;;;3.10;97.30;;;;;;4955194;29;20066;-80
2022/02/22 02:32:33;;;;;;;9.48;4.00;;;3.10;98.70;;;;;;4954605;28;20019;-80
2022/02/22 02:34:58;;;;;;;4.28;3.60;;;3.10;98.80;;;;;;4955171;29;20430;-75
2022/02/22 02:37:24;;;;;;;4.97;3.95;;;3.00;99.90;;;;;;4954637;28;20069;-79
2022/02/22 02:39:50;;;;;;;6.68;4.20;;;3.10;99.90;;;;;;4955064;29;20019;-76
2022/02/22 02:42:17;;;;;;;7.13;3.60;;;3.00;99.90;;;;;;4954598;28;20030;-74
2022/02/22 02:44:44;;;;;;;9.50;3.90;;;3.10;99.90;;;;;;4954946;29;20055;-80
2022/02/22 02:47:10;;;;;;;5.85;3.25;;;3.00;99.90;;;;;;4937301;29;20034;-74
2022/02/22 02:49:36;;;;;;;12.10;5.28;;;3.00;99.90;;;;;;4954864;28;20036;-74
2022/02/22 02:52:02;;;;;;;6.15;4.53;;;3.00;99.90;;;;;;4954618;28;20085;-74
2022/02/22 02:54:28;;;;;;;5.97;3.08;;;3.00;99.90;;;;;;4955038;28;20023;-80
2022/02/22 02:56:53;;;;;;;5.75;3.72;;;2.90;99.90;;;;;;4958299;28;20023;-74
2022/02/22 02:59:19;;;;;;;8.57;3.65;;;3.00;99.90;;;;;;4941694;29;20039;-75
2022/02/22 03:01:45;;;;;;;5.65;3.83;;;3.00;99.90;;;;;;4958324;28;20019;-80
2022/02/22 03:04:12;;;;;;;8.65;3.92;;;2.90;99.90;;;;;;4958822;29;20067;-74
2022/02/22 03:06:38;;;;;;;6.78;3.80;;;2.90;99.90;;;;;;4958281;28;20027;-74
2022/02/22 03:09:04;;;;;;;6.70;3.88;;;2.90;99.90;;;;;;4941332;29;20374;-79
2022/02/22 03:11:30;;;;;;;6.25;3.97;;;2.90;99.90;;;;;;4940826;28;20035;-74
2022/02/22 03:13:56;;;;;;;8.45;4.15;;;2.90;99.90;;;;;;4941497;29;20070;-80
2022/02/22 03:16:21;;;;;;;4.85;3.10;;;2.90;99.90;;;;;;4958126;28;20031;-74
2022/02/22 03:18:47;;;;;;;8.82;5.18;;;2.80;99.90;;;;;;4958476;29;20024;-75
2022/02/22 03:21:13;;;;;;;4.10;3.50;;;2.90;99.90;;;;;;4958422;28;20058;-80
2022/02/22 03:23:39;;;;;;;4.13;2.80;;;2.90;99.90;;;;;;4937625;29;20163;-74
2022/02/22 03:26:04;;;;;;;5.55;4.68;;;2.80;99.90;;;;;;4941468;28;20039;-74
2022/02/22 03:28:31;;;;;;;6.38;4.65;;;2.80;99.90;;;;;;4941103;29;20388;-80
2022/02/22 03:30:57;;;;;;;11.68;6.47;;;2.80;99.90;;;;;;4940616;28;20035;-74
2022/02/22 03:33:23;;;;;;;13.77;6.78;;;2.70;99.90;;;;;;4958252;28;20028;-74
2022/02/22 03:35:49;;;;;;;9.73;6.13;;;2.70;99.90;;;;;;4958135;28;20032;-73
2022/02/22 03:38:15;;;;;;;14.57;5.75;;;2.70;99.90;;;;;;4957767;28;20019;-80
2022/02/22 03:40:41;;;;;;;17.50;8.55;;;2.70;99.90;;;;;;4940884;29;20050;-75
2022/02/22 03:43:07;;;;;;;6.43;4.18;;;2.70;99.90;;;;;;4957649;28;20367;-75
2022/02/22 03:45:33;;;;;;;4.93;3.10;;;2.60;99.90;;;;;;4958048;28;20079;-75
2022/02/22 03:47:59;;;;;;;2.92;2.72;;;2.60;99.90;;;;;;4957518;28;20030;-80
2022/02/22 03:50:24;;;;;;;4.65;3.60;;;2.60;99.90;;;;;;4957886;28;20043;-75
2022/02/22 03:52:50;;;;;;;5.47;3.28;;;2.60;99.90;;;;;;4957478;28;20055;-74
2022/02/22 03:55:17;;;;;;;6.18;4.70;;;2.50;99.90;;;;;;4957742;29;20027;-80
2022/02/22 03:57:42;;;;;;;3.45;3.15;;;2.50;99.90;;;;;;4940146;29;20051;-79
2022/02/22 04:00:14;;;;;;;5.30;3.53;;;2.50;99.90;;;;;;4940492;29;20054;-74
2022/02/22 04:02:39;;;;;;;3.17;2.75;;;2.50;99.90;;;;;;4957347;28;20024;-80
2022/02/22 04:05:06;;;;;;;7.10;4.78;;;2.50;99.90;;;;;;4957698;29;20028;-74
2022/02/22 04:07:32;;;;;;;2.30;2.10;;;2.40;99.90;;;;;;4957023;28;20425;-74
2022/02/22 04:09:58;;;;;;;2.83;2.35;;;2.40;99.90;;;;;;4957547;28;20043;-74
2022/02/22 04:12:23;;;;;;;3.40;2.10;;;2.30;99.90;;;;;;4939840;29;20549;-74
2022/02/22 04:14:49;;;;;;;4.07;3.10;;;2.30;99.90;;;;;;4957357;29;20020;-74
2022/02/22 04:17:15;;;;;;;4.05;2.50;;;2.30;99.90;;;;;;4957043;28;20030;-74
2022/02/22 04:19:40;;;;;;;2.38;2.17;;;2.20;99.90;;;;;;4957186;28;20019;-79
2022/02/22 04:22:06;;;;;;;2.60;2.40;;;2.20;99.90;;;;;;4956903;28;20051;-74
2022/02/22 04:24:31;;;;;;;2.47;2.22;;;2.20;99.90;;;;;;4957299;28;20481;-75
2022/02/22 04:26:57;;;;;;;1.90;1.75;;;2.20;99.90;;;;;;4939722;29;20078;-79
2022/02/22 04:29:23;;;;;;;3.17;2.90;;;2.10;99.90;;;;;;4956928;28;20036;-80
2022/02/22 04:31:49;;;;;;;4.28;3.33;;;2.00;99.90;;;;;;4939520;29;20389;-79
2022/02/22 04:34:15;;;;;;;5.63;3.92;;;2.00;99.90;;;;;;4940086;29;20031;-80
2022/02/22 04:36:40;;;;;;;4.38;2.83;;;1.90;99.90;;;;;;4956697;28;20023;-74
2022/02/22 04:39:06;;;;;;;5.80;2.90;;;1.90;99.90;;;;;;4939722;29;20026;-75
2022/02/22 04:41:32;;;;;;;2.42;2.22;;;1.80;99.90;;;;;;4956495;28;20098;-74
2022/02/22 04:43:58;;;;;;;3.22;2.83;;;1.80;99.90;;;;;;4939877;29;20058;-75
2022/02/22 04:46:24;;;;;;;3.22;2.70;;;1.70;99.90;;;;;;4956540;28;20102;-80
2022/02/22 04:48:50;;;;;;;4.30;2.80;;;1.70;99.90;;;;;;4956981;28;20027;-80
2022/02/22 04:51:15;;;;;;;5.85;4.32;;;1.70;99.90;;;;;;4956470;28;20086;-80
2022/02/22 04:53:41;;;;;;;3.30;2.63;;;1.60;99.90;;;;;;4956854;28;20489;-79
2022/02/22 04:56:07;;;;;;;1.95;1.77;;;1.60;99.90;;;;;;4956773;28;20474;-80
2022/02/22 04:58:32;;;;;;;3.20;2.92;;;1.50;99.90;;;;;;4959608;28;20483;-75
2022/02/22 05:00:58;;;;;;;8.45;4.57;;;1.50;99.90;;;;;;4975737;28;20031;-73
2022/02/22 05:03:23;;;;;;;3.13;2.15;;;1.50;99.90;;;;;;4959146;28;20026;-75
2022/02/22 05:05:49;;;;;;;14.68;6.47;;;1.50;99.90;;;;;;4956461;28;20027;-81
2022/02/22 05:08:15;;;;;;;28.38;12.63;;;1.50;99.90;;;;;;4935597;29;20087;-80
2022/02/22 05:10:42;;;;;;;31.42;14.85;;;1.50;99.90;;;;;;4937106;29;20460;-80
2022/02/22 05:13:08;;;;;;;4.45;2.92;;;1.50;99.90;;;;;;4950944;28;20037;-74
2022/02/22 05:15:33;;;;;;;8.88;5.03;;;1.50;99.90;;;;;;4956432;28;20110;-74
2022/02/22 05:18:00;;;;;;;16.83;8.27;;;1.40;99.90;;;;;;4955269;28;20031;-74
2022/02/22 05:20:25;;;;;;;8.77;5.25;;;1.40;99.90;;;;;;4939091;29;20059;-73
2022/02/22 05:22:51;;;;;;;3.92;2.35;;;1.40;99.90;;;;;;4955769;28;20482;-74
2022/02/22 05:25:17;;;;;;;2.70;2.50;;;1.30;99.90;;;;;;4956282;28;20106;-79
2022/02/22 05:27:43;;;;;;;14.38;9.63;;;1.30;99.90;;;;;;4938553;29;20027;-74
2022/02/22 05:30:11;;;;;;;3.00;1.88;;;1.30;99.90;;;;;;4956013;29;20035;-74
2022/02/22 05:32:36;;;;;;;5.85;4.18;;;1.20;99.90;;;;;;4955695;28;20027;-74
2022/02/22 05:35:03;;;;;;;7.20;3.42;;;1.30;99.90;;;;;;4956123;28;20078;-75
2022/02/22 05:37:29;;;;;;;1.85;1.80;;;1.30;99.90;;;;;;4938277;29;20034;-80
2022/02/22 05:39:56;;;;;;;5.20;3.10;;;1.30;99.90;;;;;;4938609;29;20035;-80
2022/02/22 05:42:26;;;;;;;2.88;2.00;;;1.30;99.90;;;;;;4938138;29;20121;-80
2022/02/22 05:44:51;;;;;;;4.55;3.70;;;1.30;99.90;;;;;;4956247;28;20031;-74
2022/02/22 05:47:17;;;;;;;9.48;5.72;;;1.30;99.90;;;;;;4955404;28;20020;-74
2022/02/22 05:49:44;;;;;;;7.32;3.72;;;1.30;99.90;;;;;;4938547;29;20497;-74
2022/02/22 05:52:10;;;;;;;9.48;4.80;;;1.30;99.90;;;;;;4955196;28;20034;-74
2022/02/22 05:54:36;;;;;;;11.00;4.53;;;1.30;99.90;;;;;;4955647;29;20470;-80
2022/02/22 05:57:02;;;;;;;9.25;4.68;;;1.30;99.90;;;;;;4937876;29;20023;-80
2022/02/22 05:59:28;;;;;;;11.77;6.85;;;1.30;99.90;;;;;;4955614;28;20508;-75
2022/02/22 06:01:53;;;;;;;29.17;14.23;;;1.30;99.90;;;;;;4955128;28;20019;-74
2022/02/22 06:04:19;;;;;;;7.40;3.67;;;1.30;99.90;;;;;;4938332;29;20110;-80
2022/02/22 06:06:44;;;;;;;9.00;4.70;;;1.30;99.90;;;;;;4937888;29;20078;-80
2022/02/22 06:09:10;;;;;;;7.55;3.90;;;1.30;99.90;;;;;;4952774;28;20028;-74
2022/02/22 06:11:36;;;;;;;7.43;4.75;;;1.30;99.90;;;;;;4954117;28;20042;-80
2022/02/22 06:14:02;;;;;;;8.90;4.68;;;1.30;99.90;;;;;;4938417;29;20389;-72
2022/02/22 06:16:28;;;;;;;6.28;3.50;;;1.30;99.90;;;;;;4945159;28;20035;-73
2022/02/22 06:18:54;;;;;;;21.60;9.38;;;1.30;99.90;;;;;;4954021;28;20110;-74
2022/02/22 06:21:19;;;;;;;12.57;4.80;;;1.30;99.90;;;;;;4954077;28;20051;-74
2022/02/22 06:23:45;;;;;;;8.00;4.80;;;1.40;99.90;;;;;;4954391;28;20019;-74
2022/02/22 06:26:11;;;;;;;18.40;7.80;;;1.40;99.90;;;;;;4936457;29;20385;-74
2022/02/22 06:28:36;;;;;;;15.38;7.85;;;1.40;99.90;;;;;;4954644;28;20062;-80
2022/02/22 06:31:02;;;;;;;9.07;4.70;;;1.40;99.90;;;;;;4932765;29;20095;-79
2022/02/22 06:33:28;;;;;;;10.75;5.47;;;1.40;99.90;;;;;;4934353;28;20421;-80
2022/02/22 06:35:53;;;;;;;11.52;5.35;;;1.50;99.90;;;;;;4936464;28;20067;-81
2022/02/22 06:38:19;;;;;;;12.00;5.28;;;1.50;99.90;;;;;;4936595;28;20489;-81
2022/02/22 06:40:45;;;;;;;9.10;4.88;;;1.50;99.90;;;;;;4957753;28;20090;-82
2022/02/22 06:43:11;;;;;;;18.58;7.57;;;1.50;99.90;;;;;;4973273;28;20027;-81
2022/02/22 06:45:37;;;;;;;8.85;4.93;;;1.50;99.90;;;;;;4946300;28;20030;-81
2022/02/22 06:48:03;;;;;;;9.98;5.10;;;1.50;99.90;;;;;;4931514;29;20567;-74
2022/02/22 06:50:29;;;;;;;9.88;4.50;;;1.60;99.90;;;;;;4953381;29;20525;-74
2022/02/22 06:52:54;;;;;;;8.27;4.50;;;1.60;99.90;;;;;;4936880;29;20062;-74
2022/02/22 06:55:20;;;;;;;9.07;5.50;;;1.70;99.90;;;;;;4954932;29;20019;-81
2022/02/22 06:57:54;;;;;;;9.15;5.68;;;1.70;99.90;;;;;;4937095;29;20093;-75
2022/02/22 07:00:21;;;;;;;14.07;6.03;;;1.70;99.90;;;;;;4937533;29;20118;-75
2022/02/22 07:02:47;;;;;;;11.32;6.25;;;1.80;99.90;;;;;;4954281;28;20359;-81
2022/02/22 07:05:13;;;;;;;9.45;5.45;;;1.80;99.90;;;;;;4937546;29;20027;-73
2022/02/22 07:07:39;;;;;;;12.30;5.80;;;1.80;99.90;;;;;;4954212;28;20023;-79
2022/02/22 07:10:06;;;;;;;21.63;9.85;;;1.80;99.90;;;;;;4953186;29;20438;-73
2022/02/22 07:12:32;;;;;;;10.40;6.78;;;1.80;99.90;;;;;;4952258;28;20019;-72
2022/02/22 07:14:58;;;;;;;14.15;6.13;;;1.70;99.90;;;;;;4935316;29;20051;-73
2022/02/22 07:17:23;;;;;;;13.70;7.40;;;1.70;99.90;;;;;;4952231;28;20533;-79
2022/02/22 07:19:51;;;;;;;13.75;6.90;;;1.70;99.90;;;;;;4952569;28;20053;-72
2022/02/22 07:22:17;;;;;;;253.05;111.25;;;1.70;99.90;;;;;;4952305;28;20631;-72
2022/02/22 07:24:42;;;;;;;65.03;36.28;;;1.80;99.90;;;;;;4953473;29;20027;-73
2022/02/22 07:27:08;;;;;;;23.05;11.77;;;1.80;99.90;;;;;;4937119;29;20027;-72
2022/02/22 07:29:34;;;;;;;44.85;22.90;;;1.90;99.90;;;;;;4954447;29;20035;-72
2022/02/22 07:31:59;;;;;;;44.55;27.13;;;1.90;99.90;;;;;;4937010;29;20031;-72
2022/02/22 07:34:25;;;;;;;29.30;14.27;;;2.00;99.90;;;;;;4954633;28;20019;-80
2022/02/22 07:36:51;;;;;;;48.05;24.70;;;2.00;99.90;;;;;;4954052;28;20122;-78
2022/02/22 07:39:16;;;;;;;35.20;19.15;;;2.10;99.90;;;;;;4954680;28;20110;-73
2022/02/22 07:41:42;;;;;;;24.33;14.80;;;2.10;99.90;;;;;;4955772;28;20031;-78
2022/02/22 07:44:08;;;;;;;31.20;19.50;;;2.30;99.90;;;;;;4940964;29;20537;-73
2022/02/22 07:46:33;;;;;;;59.35;25.20;;;2.30;99.90;;;;;;4939874;28;20015;-79
2022/02/22 07:48:59;;;;;;;58.10;27.02;;;2.40;99.90;;;;;;4956859;28;20115;-79
2022/02/22 07:51:25;;;;;;;63.53;32.55;;;2.40;99.90;;;;;;4975398;28;20031;-79
2022/02/22 07:53:50;;;;;;;48.72;23.95;;;2.50;99.90;;;;;;4974263;28;20431;-79
2022/02/22 07:56:17;;;;;;;45.65;22.38;;;2.60;99.90;;;;;;4976476;28;20027;-79
2022/02/22 07:58:42;;;;;;;47.13;25.05;;;2.60;99.90;;;;;;4955725;28;20026;-80
2022/02/22 08:01:11;;;;;;;35.72;18.02;;;2.70;99.90;;;;;;4965481;28;20023;-80
2022/02/22 08:03:37;;;;;;;34.03;18.85;;;2.80;99.90;;;;;;4957747;29;20170;-72
2022/02/22 08:06:03;;;;;;;24.02;13.10;;;3.00;99.90;;;;;;4940610;28;20106;-78
2022/02/22 08:08:28;;;;;;;28.58;15.38;;;3.10;99.90;;;;;;4957346;28;20494;-74
2022/02/22 08:10:54;;;;;;;28.45;15.40;;;3.10;99.90;;;;;;4940203;28;20042;-79
2022/02/22 08:13:20;;;;;;;21.77;11.88;;;3.30;99.90;;;;;;4939992;29;20027;-78
2022/02/22 08:15:45;;;;;;;17.17;9.52;;;3.30;99.90;;;;;;4940066;28;20106;-73
2022/02/22 08:18:11;;;;;;;23.08;12.68;;;3.30;99.90;;;;;;4940230;29;20469;-79
2022/02/22 08:20:36;;;;;;;14.43;8.65;;;3.20;99.90;;;;;;4957346;29;20493;-72
2022/02/22 08:23:02;;;;;;;23.00;10.80;;;3.20;99.90;;;;;;4957043;28;20031;-79
2022/02/22 08:25:28;;;;;;;19.10;10.52;;;3.20;99.90;;;;;;4940291;29;20023;-72
2022/02/22 08:27:54;;;;;;;18.08;9.98;;;3.30;99.90;;;;;;4956889;28;20034;-73
2022/02/22 08:30:20;;;;;;;18.55;11.27;;;3.30;99.90;;;;;;4957260;28;20035;-78
2022/02/22 08:32:45;;;;;;;17.92;9.93;;;3.30;99.90;;;;;;4956736;28;20027;-78
2022/02/22 08:35:11;;;;;;;18.60;11.30;;;3.40;99.90;;;;;;4939836;29;20481;-73
2022/02/22 08:37:36;;;;;;;16.60;8.70;;;3.50;99.90;;;;;;4956539;28;20059;-72
2022/02/22 08:40:03;;;;;;;16.80;10.45;;;3.50;99.90;;;;;;4957159;28;20026;-73
2022/02/22 08:42:29;;;;;;;13.15;8.20;;;3.50;99.90;;;;;;4956623;28;20078;-79
2022/02/22 08:44:55;;;;;;;20.98;10.18;;;3.50;99.90;;;;;;4939871;29;20034;-79
2022/02/22 08:47:20;;;;;;;14.32;8.60;;;3.60;99.90;;;;;;4956447;28;20433;-78
2022/02/22 08:49:49;;;;;;;9.20;6.55;;;3.60;99.90;;;;;;4939658;29;20075;-78
2022/02/22 08:52:17;;;;;;;10.98;7.40;;;3.60;99.90;;;;;;4938550;29;20485;-78
2022/02/22 08:54:43;;;;;;;12.57;8.77;;;3.70;99.90;;;;;;4939407;29;20474;-78
2022/02/22 08:57:09;;;;;;;12.80;8.30;;;3.70;99.90;;;;;;4939173;29;20466;-73
2022/02/22 08:59:34;;;;;;;11.95;8.25;;;3.80;99.90;;;;;;4939558;29;20035;-78
2022/02/22 09:02:00;;;;;;;13.85;8.38;;;3.80;99.90;;;;;;4956221;28;20031;-72
2022/02/22 09:04:26;;;;;;;13.27;7.65;;;3.90;99.90;;;;;;4956707;29;20023;-78
2022/02/22 09:06:52;;;;;;;12.95;8.57;;;3.70;99.90;;;;;;4938842;29;20094;-72
2022/02/22 09:09:17;;;;;;;11.73;8.15;;;3.60;99.90;;;;;;4956442;29;20030;-78
2022/02/22 09:11:43;;;;;;;14.13;8.27;;;3.50;99.90;;;;;;4956026;28;20717;-72
2022/02/22 09:14:08;;;;;;;15.00;8.30;;;3.50;99.90;;;;;;4956481;29;20500;-72
2022/02/22 09:16:34;;;;;;;16.98;9.35;;;3.60;99.90;;;;;;4938766;28;20389;-79
2022/02/22 09:19:00;;;;;;;13.25;9.75;;;3.50;99.90;;;;;;4939298;29;20487;-79
2022/02/22 09:21:26;;;;;;;16.25;10.88;;;3.60;99.90;;;;;;4938402;28;20057;-74
2022/02/22 09:23:52;;;;;;;14.75;12.00;;;3.50;99.90;;;;;;4939139;29;20050;-73
2022/02/22 09:26:18;;;;;;;13.70;9.80;;;3.50;99.90;;;;;;4938578;29;20064;-78
2022/02/22 09:28:45;;;;;;;12.23;7.65;;;3.40;99.90;;;;;;4939043;29;20015;-73
2022/02/22 09:31:11;;;;;;;13.73;9.70;;;3.50;99.90;;;;;;4956070;28;20043;-73
2022/02/22 09:33:36;;;;;;;18.60;9.80;;;3.50;99.90;;;;;;4938496;29;20473;-73
2022/02/22 09:36:02;;;;;;;11.77;7.45;;;3.60;99.90;;;;;;4938504;28;20023;-72
2022/02/22 09:38:28;;;;;;;11.68;7.85;;;3.60;99.90;;;;;;4956085;28;20521;-78
2022/02/22 09:40:53;;;;;;;12.73;7.30;;;3.60;99.90;;;;;;4955538;28;20102;-72
2022/02/22 09:43:19;;;;;;;8.82;6.18;;;3.50;99.90;;;;;;4956051;28;20106;-73
2022/02/22 09:45:45;;;;;;;7.85;7.00;;;3.50;99.90;;;;;;4938874;29;20143;-78
2022/02/22 09:48:10;;;;;;;7.78;6.55;;;3.40;99.90;;;;;;4938586;29;20027;-73
2022/02/22 09:50:36;;;;;;;12.07;6.80;;;3.50;99.90;;;;;;4955720;29;20039;-74
2022/02/22 09:53:03;;;;;;;11.13;5.88;;;3.60;99.90;;;;;;4955442;28;20473;-79
2022/02/22 09:55:28;;;;;;;9.75;5.22;;;3.70;99.90;;;;;;4955751;28;20031;-78
2022/02/22 09:57:55;;;;;;;9.13;5.45;;;3.80;99.90;;;;;;4955320;28;20027;-78
2022/02/22 10:00:23;;;;;;;9.45;6.95;;;3.80;99.90;;;;;;4938141;29;20621;-73
2022/02/22 10:02:49;;;;;;;10.80;6.22;;;3.90;99.90;;;;;;4955252;28;20170;-79
2022/02/22 10:05:21;;;;;;;7.72;5.88;;;3.90;99.90;;;;;;4955483;28;20074;-78
2022/02/22 10:07:49;;;;;;;14.95;6.93;;;4.00;99.90;;;;;;4937971;29;20023;-78
2022/02/22 10:10:15;;;;;;;6.70;4.70;;;4.10;99.90;;;;;;4955505;29;20031;-73
2022/02/22 10:12:40;;;;;;;6.32;4.93;;;4.20;99.90;;;;;;4955099;28;20015;-72
2022/02/22 10:15:08;;;;;;;9.00;5.25;;;4.30;99.90;;;;;;4938260;29;20062;-79
2022/02/22 10:17:41;;;;;;;5.63;4.55;;;4.30;99.90;;;;;;4954930;28;20094;-73
2022/02/22 10:20:09;;;;;;;5.75;4.32;;;4.40;99.90;;;;;;4938035;29;20098;-73
2022/02/22 10:22:53;;;;;;;7.70;3.95;;;4.50;99.90;;;;;;4955056;28;20473;-79
2022/02/22 10:25:20;;;;;;;7.45;4.75;;;4.70;99.90;;;;;;4955451;29;20370;-78
2022/02/22 10:27:50;;;;;;;9.02;5.47;;;4.70;99.90;;;;;;4954872;28;20023;-72
2022/02/22 10:30:26;;;;;;;9.57;5.80;;;4.60;99.90;;;;;;4955420;28;20090;-79
2022/02/22 10:32:52;;;;;;;7.75;4.40;;;4.80;99.90;;;;;;4937450;29;20083;-72
2022/02/22 10:35:32;;;;;;;4.80;3.83;;;4.80;99.90;;;;;;4955248;29;20019;-78
2022/02/22 10:37:58;;;;;;;6.32;4.18;;;4.80;99.90;;;;;;4954740;28;20030;-72
2022/02/22 10:40:30;;;;;;;5.68;4.60;;;4.90;99.90;;;;;;4955163;29;20026;-71
2022/02/22 10:42:57;;;;;;;7.97;4.65;;;4.90;99.90;;;;;;4937472;29;20023;-78
2022/02/22 10:45:24;;;;;;;6.22;4.05;;;5.00;99.90;;;;;;4954940;28;20389;-79
2022/02/22 10:47:50;;;;;;;5.32;3.60;;;5.00;99.90;;;;;;4954689;28;20541;-73
2022/02/22 10:50:24;;;;;;;4.85;3.05;;;5.00;99.90;;;;;;4954978;28;20071;-73
2022/02/22 10:52:50;;;;;;;6.07;3.90;;;5.10;99.90;;;;;;4937406;29;20037;-73
2022/02/22 10:55:15;;;;;;;7.82;3.70;;;5.10;99.90;;;;;;4937781;29;20485;-73
2022/02/22 10:57:41;;;;;;;6.72;3.72;;;5.10;99.90;;;;;;4954378;28;20107;-73
2022/02/22 11:00:08;;;;;;;7.38;3.97;;;5.10;99.90;;;;;;4954380;28;20541;-79
2022/02/22 11:02:34;;;;;;;6.85;3.65;;;5.30;99.90;;;;;;4937026;29;20019;-79
2022/02/22 11:05:01;;;;;;;6.00;3.95;;;5.30;99.50;;;;;;4937808;29;20482;-73
2022/02/22 11:07:27;;;;;;;3.33;2.85;;;5.10;98.40;;;;;;4954444;28;20031;-79
2022/02/22 11:09:53;;;;;;;5.88;3.38;;;5.10;98.90;;;;;;4954543;29;20046;-73
2022/02/22 11:12:23;;;;;;;9.00;4.57;;;5.10;99.80;;;;;;4954418;28;20026;-79
2022/02/22 11:14:49;;;;;;;6.35;3.30;;;5.10;99.90;;;;;;4937679;29;20474;-79
2022/02/22 11:17:22;;;;;;;6.15;3.22;;;5.10;99.90;;;;;;4957016;28;20042;-72
2022/02/22 11:19:49;;;;;;;;;;;5.00;99.20;;;;;;4958888;29;20154;-79
2022/02/22 11:22:23;;;;;;;6.15;3.70;;;5.00;99.90;;;;;;4940753;29;19915;-79
2022/02/22 11:24:54;;;;;;;8.40;3.97;;;5.20;99.90;;;;;;4941296;29;20027;-73
2022/02/22 11:27:30;;;;;;;9.48;3.90;;;5.20;99.60;;;;;;4958133;28;20028;-78
2022/02/22 11:30:07;;;;;;;3.97;3.30;;;5.20;98.10;;;;;;4958399;28;20036;-73
2022/02/22 11:32:38;;;;;;;6.15;4.28;;;5.10;98.60;;;;;;4940711;29;20034;-79
2022/02/22 11:35:13;;;;;;;5.00;3.22;;;5.00;99.90;;;;;;4941171;29;20130;-72
2022/02/22 11:37:39;;;;;;;4.57;3.40;;;4.60;99.90;;;;;;4957889;28;20034;-80
2022/02/22 11:40:06;;;;;;;6.68;4.05;;;4.30;99.90;;;;;;4958282;29;20508;-79
2022/02/22 11:42:33;;;;;;;5.90;4.00;;;4.20;99.90;;;;;;4957780;28;20509;-72
2022/02/22 11:45:04;;;;;;;7.35;4.90;;;4.30;99.90;;;;;;4958118;29;20023;-73
2022/02/22 11:47:31;;;;;;;6.75;4.65;;;4.30;99.90;;;;;;4957587;28;20023;-79
2022/02/22 11:49:57;;;;;;;6.90;4.47;;;4.50;99.90;;;;;;4940771;29;20035;-80
2022/02/22 11:52:37;;;;;;;5.75;4.50;;;4.50;99.90;;;;;;4957559;28;20029;-73
2022/02/22 11:55:05;;;;;;;6.15;3.78;;;4.70;99.90;;;;;;4957939;29;20106;-72
2022/02/22 11:57:51;;;;;;;8.15;5.50;;;4.70;99.90;;;;;;4940270;29;20020;-79
2022/02/22 12:00:30;;;;;;;6.03;3.95;;;4.80;99.90;;;;;;4940750;29;20030;-73
2022/02/22 12:03:11;;;;;;;4.85;3.53;;;4.90;99.90;;;;;;4957506;28;20019;-79
2022/02/22 12:05:44;;;;;;;4.90;3.70;;;4.90;99.90;;;;;;4957870;29;20031;-79
2022/02/22 12:08:16;;;;;;;5.07;2.85;;;5.00;99.90;;;;;;4957567;29;20465;-79
2022/02/22 12:10:48;;;;;;;3.97;2.80;;;4.90;99.90;;;;;;4940357;29;20035;-80
2022/02/22 12:13:17;;;;;;;5.43;3.45;;;4.80;99.90;;;;;;4939869;29;20031;-73
2022/02/22 12:15:43;;;;;;;4.53;3.17;;;4.90;99.90;;;;;;4957362;29;20027;-72
2022/02/22 12:18:20;;;;;;;5.82;3.75;;;4.80;99.90;;;;;;4939753;29;20015;-73
2022/02/22 12:20:47;;;;;;;3.30;2.50;;;4.80;99.90;;;;;;4940180;28;20062;-73
2022/02/22 12:23:19;;;;;;;2.40;2.17;;;4.60;99.90;;;;;;4939710;29;20028;-73
2022/02/22 12:25:46;;;;;;;3.67;2.47;;;4.00;99.90;;;;;;4957429;29;20027;-73
2022/02/22 12:28:11;;;;;;;6.85;3.65;;;3.90;99.90;;;;;;4956947;28;20063;-73
2022/02/22 12:30:39;;;;;;;6.68;3.85;;;3.90;99.90;;;;;;4957212;29;20496;-74
2022/02/22 12:33:06;;;;;;;5.88;3.80;;;4.00;99.90;;;;;;4939549;29;20035;-79
2022/02/22 12:35:39;;;;;;;6.25;4.40;;;4.10;99.90;;;;;;4940058;29;20037;-73
2022/02/22 12:38:31;;;;;;;9.85;6.20;;;4.30;99.90;;;;;;4939527;29;20374;-80
2022/02/22 12:40:57;;;;;;;8.80;4.47;;;4.50;99.90;;;;;;4937537;28;20050;-79
2022/02/22 12:43:23;;;;;;;9.18;4.70;;;4.50;99.90;;;;;;4956796;29;20070;-73
2022/02/22 12:45:53;;;;;;;12.77;11.02;;;4.30;99.90;;;;;;4955765;28;20035;-79
2022/02/22 12:48:21;;;;;;;25.38;17.20;;;4.20;99.90;;;;;;4956412;29;20473;-79
2022/02/22 12:50:57;;;;;;;15.43;7.50;;;4.20;99.90;;;;;;4956855;28;20058;-73